Time;durP1;ratioP1;P1;durP2;ratioP2;P2;SDS_P1;SDS_P2;PMS_P1;PMS_P2;Temp;Humidity;BMP_temperature;BMP_pressure;BME280_temperature;BME280_humidity;BME280_pressure;Samples;Min_cycle;Max_cycle;Signal;HPM_P1;HPM_P2
2023/08/17 00:00:18;;;;;;;;;;;23.10;56.20;;;;;;5116683;28;19919;-77
2023/08/17 00:02:43;;;;;;;;;;;22.90;57.30;;;;;;5121928;28;20365;-76
2023/08/17 00:05:09;;;;;;;;;;;22.80;58.80;;;;;;5123169;28;20006;-75
2023/08/17 00:07:35;;;;;;;;;;;22.60;60.10;;;;;;5115133;28;19939;-73
2023/08/17 00:10:01;;;;;;;;;;;22.40;61.50;;;;;;5107348;28;19995;-73
2023/08/17 00:12:26;;;;;;;;;;;22.30;62.40;;;;;;5094022;28;19969;-73
2023/08/17 00:14:52;;;;;;;;;;;22.20;63.20;;;;;;5094657;28;19912;-74
2023/08/17 00:17:18;;;;;;;;;;;22.10;64.00;;;;;;5109406;28;20371;-75
2023/08/17 00:19:44;;;;;;;;;;;22.00;64.60;;;;;;5113414;28;19908;-73
2023/08/17 00:22:09;;;;;;;;;;;21.90;65.30;;;;;;5103330;28;19942;-73
2023/08/17 00:24:35;;;;;;;;;;;21.80;65.90;;;;;;5093016;28;19914;-73
2023/08/17 00:27:00;;;;;;;;;;;21.80;66.30;;;;;;5093067;28;19970;-72
2023/08/17 00:29:26;;;;;;;;;;;21.70;66.80;;;;;;5100880;28;19969;-72
2023/08/17 00:31:52;;;;;;;;;;;21.70;67.20;;;;;;5095383;28;19961;-70
2023/08/17 00:34:17;;;;;;;;;;;21.70;67.40;;;;;;5099828;28;19951;-69
2023/08/17 00:36:43;;;;;;;;;;;21.60;67.70;;;;;;5096159;28;19967;-69
2023/08/17 00:39:08;;;;;;;;;;;21.60;68.20;;;;;;5112727;28;19953;-69
2023/08/17 00:41:34;;;;;;;;;;;21.50;68.50;;;;;;5092951;28;19916;-69
2023/08/17 00:43:59;;;;;;;;;;;21.40;68.80;;;;;;5093262;28;19919;-70
2023/08/17 00:46:26;;;;;;;;;;;21.40;69.20;;;;;;5113074;28;19927;-71
2023/08/17 00:48:52;;;;;;;;;;;21.40;69.50;;;;;;5113120;28;20006;-71
2023/08/17 00:51:20;;;;;;;;;;;21.30;69.60;;;;;;5092607;28;19959;-72
2023/08/17 00:53:45;;;;;;;;;;;21.30;70.00;;;;;;5092625;28;20303;-72
2023/08/17 00:56:11;;;;;;;;;;;21.30;70.10;;;;;;5103874;28;19924;-72
2023/08/17 00:58:36;;;;;;;;;;;21.30;70.20;;;;;;5127172;27;19907;-71
2023/08/17 01:01:02;;;;;;;;;;;21.30;70.30;;;;;;5124014;27;19915;-70
2023/08/17 01:03:28;;;;;;;;;;;21.30;70.50;;;;;;5112769;28;19908;-70
2023/08/17 01:05:53;;;;;;;;;;;21.30;70.50;;;;;;5112738;28;19908;-70
2023/08/17 01:08:19;;;;;;;;;;;21.30;70.50;;;;;;5111524;28;19914;-71
2023/08/17 01:10:47;;;;;;;;;;;21.30;70.40;;;;;;5112685;28;19908;-70
2023/08/17 01:13:17;;;;;;;;;;;21.30;70.40;;;;;;5103307;28;19928;-70
2023/08/17 01:15:50;;;;;;;;;;;21.30;70.50;;;;;;5092222;28;19919;-71
2023/08/17 01:18:36;;;;;;;;;;;21.30;70.60;;;;;;5092138;28;19981;-72
2023/08/17 01:21:02;;;;;;;;;;;21.30;70.60;;;;;;5092013;28;19989;-71
2023/08/17 01:23:28;;;;;;;;;;;21.30;70.70;;;;;;5092220;28;19911;-71
2023/08/17 01:25:53;;;;;;;;;;;21.30;70.70;;;;;;5092034;28;19915;-71
2023/08/17 01:28:19;;;;;;;;;;;21.30;70.70;;;;;;5090726;28;20309;-71
2023/08/17 01:30:47;;;;;;;;;;;21.30;70.70;;;;;;5091933;28;19908;-71
2023/08/17 01:33:15;;;;;;;;;;;21.30;70.70;;;;;;5091991;28;19939;-71
2023/08/17 01:35:45;;;;;;;;;;;21.30;70.80;;;;;;5092137;28;19923;-71
2023/08/17 01:38:14;;;;;;;;;;;21.30;70.90;;;;;;5092281;28;19920;-71
2023/08/17 01:40:40;;;;;;;;;;;21.30;71.00;;;;;;5092134;28;19908;-71
2023/08/17 01:43:06;;;;;;;;;;;21.30;71.00;;;;;;5092334;28;19927;-71
2023/08/17 01:45:32;;;;;;;;;;;21.30;71.10;;;;;;5091787;28;19908;-72
2023/08/17 01:47:57;;;;;;;;;;;21.40;71.00;;;;;;5092217;28;19923;-72
2023/08/17 01:50:23;;;;;;;;;;;21.40;70.90;;;;;;5105412;28;19953;-73
2023/08/17 01:52:50;;;;;;;;;;;21.50;70.90;;;;;;5111137;28;19916;-73
2023/08/17 01:55:16;;;;;;;;;;;21.50;70.70;;;;;;5111999;28;20367;-72
2023/08/17 01:57:42;;;;;;;;;;;21.40;70.60;;;;;;5110945;28;19927;-72
2023/08/17 02:00:10;;;;;;;;;;;21.30;70.50;;;;;;5112027;28;19981;-73
2023/08/17 02:02:36;;;;;;;;;;;21.30;70.50;;;;;;5112298;28;19916;-73
2023/08/17 02:05:01;;;;;;;;;;;21.30;70.80;;;;;;5111987;28;19908;-73
2023/08/17 02:07:27;;;;;;;;;;;21.30;71.00;;;;;;5112194;28;19916;-73
2023/08/17 02:09:52;;;;;;;;;;;21.30;71.10;;;;;;5112198;27;19944;-74
2023/08/17 02:12:18;;;;;;;;;;;21.30;71.10;;;;;;5115328;28;19923;-74
2023/08/17 02:14:43;;;;;;;;;;;21.30;71.00;;;;;;5116164;28;20003;-74
2023/08/17 02:17:09;;;;;;;;;;;21.30;70.90;;;;;;5114764;28;19981;-74
2023/08/17 02:19:34;;;;;;;;;;;21.30;70.90;;;;;;5116057;28;19914;-74
2023/08/17 02:22:00;;;;;;;;;;;21.30;70.90;;;;;;5116003;28;19920;-74
2023/08/17 02:24:25;;;;;;;;;;;21.30;70.90;;;;;;5115837;28;19956;-75
2023/08/17 02:26:51;;;;;;;;;;;21.30;70.90;;;;;;5116352;28;19916;-75
2023/08/17 02:29:16;;;;;;;;;;;21.30;70.90;;;;;;5114403;28;19908;-74
2023/08/17 02:31:42;;;;;;;;;;;21.30;70.90;;;;;;5115903;28;19915;-74
2023/08/17 02:34:07;;;;;;;;;;;21.30;70.90;;;;;;5114438;28;19908;-74
2023/08/17 02:36:33;;;;;;;;;;;21.30;70.90;;;;;;5115692;28;20389;-73
2023/08/17 02:38:58;;;;;;;;;;;21.30;71.00;;;;;;5115677;28;20002;-73
2023/08/17 02:41:24;;;;;;;;;;;21.20;70.80;;;;;;5115810;28;19923;-73
2023/08/17 02:43:49;;;;;;;;;;;21.20;71.00;;;;;;5115591;28;19908;-73
2023/08/17 02:46:15;;;;;;;;;;;21.10;71.10;;;;;;5095869;28;20015;-73
2023/08/17 02:48:40;;;;;;;;;;;21.00;71.00;;;;;;5095340;28;19912;-72
2023/08/17 02:51:06;;;;;;;;;;;21.00;71.10;;;;;;5115342;28;19959;-73
2023/08/17 02:53:31;;;;;;;;;;;21.00;71.20;;;;;;5115525;28;19915;-72
2023/08/17 02:55:57;;;;;;;;;;;20.90;71.20;;;;;;5115283;27;20010;-73
2023/08/17 02:58:22;;;;;;;;;;;20.90;71.30;;;;;;5115221;28;19912;-72
2023/08/17 03:00:50;;;;;;;;;;;20.90;71.40;;;;;;5115178;28;19954;-73
2023/08/17 03:03:16;;;;;;;;;;;20.80;71.40;;;;;;5115189;28;20374;-72
2023/08/17 03:05:41;;;;;;;;;;;20.80;71.40;;;;;;5115258;28;19919;-72
2023/08/17 03:08:07;;;;;;;;;;;20.80;71.50;;;;;;5115479;28;19916;-72
2023/08/17 03:10:32;;;;;;;;;;;20.80;71.60;;;;;;5113956;28;19907;-73
2023/08/17 03:12:57;;;;;;;;;;;20.80;71.70;;;;;;5115597;28;19912;-73
2023/08/17 03:15:23;;;;;;;;;;;20.80;71.70;;;;;;5114879;28;19992;-72
2023/08/17 03:17:48;;;;;;;;;;;20.80;71.50;;;;;;5115418;28;19912;-72
2023/08/17 03:20:14;;;;;;;;;;;20.80;71.60;;;;;;5114996;28;20363;-68
2023/08/17 03:22:39;;;;;;;;;;;20.80;71.70;;;;;;5114586;28;19912;-69
2023/08/17 03:25:05;;;;;;;;;;;20.80;71.70;;;;;;5114835;28;19957;-68
2023/08/17 03:27:30;;;;;;;;;;;20.70;72.00;;;;;;5114935;28;19916;-68
2023/08/17 03:29:56;;;;;;;;;;;20.80;72.10;;;;;;5114714;28;19981;-68
2023/08/17 03:32:21;;;;;;;;;;;20.80;72.10;;;;;;5114834;28;19919;-69
2023/08/17 03:34:47;;;;;;;;;;;20.70;72.00;;;;;;5114583;28;20325;-68
2023/08/17 03:37:12;;;;;;;;;;;20.70;71.90;;;;;;5114764;28;20454;-68
2023/08/17 03:39:38;;;;;;;;;;;20.80;72.00;;;;;;5114757;28;19912;-68
2023/08/17 03:42:03;;;;;;;;;;;20.70;71.90;;;;;;5115167;28;19911;-67
2023/08/17 03:44:29;;;;;;;;;;;20.70;72.00;;;;;;5109626;27;19916;-67
2023/08/17 03:46:54;;;;;;;;;;;20.70;72.00;;;;;;5094192;28;19912;-68
2023/08/17 03:49:20;;;;;;;;;;;20.70;72.00;;;;;;5099617;28;19923;-68
2023/08/17 03:51:45;;;;;;;;;;;20.70;72.10;;;;;;5114349;28;19977;-68
2023/08/17 03:54:11;;;;;;;;;;;20.70;72.10;;;;;;5114031;28;19923;-68
2023/08/17 03:56:37;;;;;;;;;;;20.60;72.10;;;;;;5114433;28;19919;-68
2023/08/17 03:59:03;;;;;;;;;;;20.60;72.20;;;;;;5114101;27;19918;-68
2023/08/17 04:01:29;;;;;;;;;;;20.60;72.20;;;;;;5113875;28;19912;-67
2023/08/17 04:03:54;;;;;;;;;;;20.60;72.20;;;;;;5114143;28;19960;-68
2023/08/17 04:06:20;;;;;;;;;;;20.60;72.30;;;;;;5114044;28;19912;-68
2023/08/17 04:08:45;;;;;;;;;;;20.60;72.30;;;;;;5114008;28;19919;-68
2023/08/17 04:11:11;;;;;;;;;;;20.60;72.40;;;;;;5114006;28;19919;-68
2023/08/17 04:13:36;;;;;;;;;;;20.60;72.40;;;;;;5113984;28;19912;-68
2023/08/17 04:16:02;;;;;;;;;;;20.60;72.30;;;;;;5113751;28;19916;-68
2023/08/17 04:18:27;;;;;;;;;;;20.60;72.20;;;;;;5113827;28;20378;-69
2023/08/17 04:20:53;;;;;;;;;;;20.60;72.30;;;;;;5113757;28;19911;-69
2023/08/17 04:23:19;;;;;;;;;;;20.60;72.30;;;;;;5113744;28;19912;-69
2023/08/17 04:25:44;;;;;;;;;;;20.60;72.40;;;;;;5113633;28;20004;-70
2023/08/17 04:28:10;;;;;;;;;;;20.60;72.50;;;;;;5109337;28;19916;-69
2023/08/17 04:30:37;;;;;;;;;;;20.60;72.60;;;;;;5093165;28;19915;-70
2023/08/17 04:33:02;;;;;;;;;;;20.70;72.50;;;;;;5093612;28;20363;-70
2023/08/17 04:35:28;;;;;;;;;;;20.70;72.40;;;;;;5091747;28;19912;-70
2023/08/17 04:37:53;;;;;;;;;;;20.70;72.50;;;;;;5092982;28;19924;-70
2023/08/17 04:40:19;;;;;;;;;;;20.70;72.40;;;;;;5092786;28;19913;-70
2023/08/17 04:42:44;;;;;;;;;;;20.80;72.40;;;;;;5093524;28;20266;-70
2023/08/17 04:45:09;;;;;;;;;;;20.80;72.50;;;;;;5092848;28;19914;-70
2023/08/17 04:47:35;;;;;;;;;;;20.80;72.40;;;;;;5093234;28;19962;-70
2023/08/17 04:50:00;;;;;;;;;;;20.80;72.30;;;;;;5104302;28;19912;-71
2023/08/17 04:52:26;;;;;;;;;;;20.80;72.30;;;;;;5112814;28;19981;-70
2023/08/17 04:54:51;;;;;;;;;;;20.90;72.30;;;;;;5112988;28;19916;-68
2023/08/17 04:57:18;;;;;;;;;;;20.90;72.30;;;;;;5113376;28;19916;-70
2023/08/17 04:59:44;;;;;;;;;;;21.00;72.30;;;;;;5113254;28;20283;-70
2023/08/17 05:02:09;;;;;;;;;;;21.00;72.30;;;;;;5113109;28;19923;-70
2023/08/17 05:04:35;;;;;;;;;;;21.00;72.20;;;;;;5112960;28;20427;-71
2023/08/17 05:07:00;;;;;;;;;;;21.10;72.20;;;;;;5113086;28;20436;-70
2023/08/17 05:09:26;;;;;;;;;;;21.10;72.30;;;;;;5112761;28;19968;-70
2023/08/17 05:11:51;;;;;;;;;;;21.20;72.40;;;;;;5113021;28;20308;-71
2023/08/17 05:14:17;;;;;;;;;;;21.30;72.30;;;;;;5112906;28;19907;-71
2023/08/17 05:16:42;;;;;;;;;;;21.30;72.30;;;;;;5112774;28;19920;-70
2023/08/17 05:19:08;;;;;;;;;;;21.30;72.30;;;;;;5112676;28;19912;-71
2023/08/17 05:21:35;;;;;;;;;;;21.40;72.30;;;;;;5112654;28;19951;-71
2023/08/17 05:24:00;;;;;;;;;;;21.50;72.30;;;;;;5112598;28;19908;-72
2023/08/17 05:26:25;;;;;;;;;;;21.50;72.30;;;;;;5112451;28;19974;-72
2023/08/17 05:28:51;;;;;;;;;;;21.50;72.20;;;;;;5112753;28;20015;-72
2023/08/17 05:31:16;;;;;;;;;;;21.60;72.10;;;;;;5112427;28;19915;-72
2023/08/17 05:33:42;;;;;;;;;;;21.70;72.00;;;;;;5112328;28;19915;-72
2023/08/17 05:36:07;;;;;;;;;;;21.70;71.90;;;;;;5112278;28;19920;-73
2023/08/17 05:38:33;;;;;;;;;;;21.80;72.00;;;;;;5112211;28;19908;-72
2023/08/17 05:40:59;;;;;;;;;;;21.80;71.70;;;;;;5112281;28;19907;-75
2023/08/17 05:43:25;;;;;;;;;;;21.80;71.90;;;;;;5112431;27;19907;-75
2023/08/17 05:45:50;;;;;;;;;;;21.80;71.80;;;;;;5094400;28;20283;-75
2023/08/17 05:48:17;;;;;;;;;;;21.80;71.80;;;;;;5097078;28;19919;-76
2023/08/17 05:50:42;;;;;;;;;;;21.80;71.80;;;;;;5101524;28;20007;-76
2023/08/17 05:53:08;;;;;;;;;;;21.80;71.90;;;;;;5100554;28;19951;-76
2023/08/17 05:55:33;;;;;;;;;;;21.90;72.00;;;;;;5107637;28;19965;-75
2023/08/17 05:58:01;;;;;;;;;;;21.90;72.10;;;;;;5111662;28;21296;-75
2023/08/17 06:00:27;;;;;;;;;;;22.00;72.20;;;;;;5105006;28;20007;-75
2023/08/17 06:02:52;;;;;;;;;;;22.10;71.90;;;;;;5108946;28;19922;-75
2023/08/17 06:05:18;;;;;;;;;;;22.20;71.80;;;;;;5110680;28;19915;-75
2023/08/17 06:07:46;;;;;;;;;;;22.20;71.70;;;;;;5112393;28;19920;-75
2023/08/17 06:10:12;;;;;;;;;;;22.20;71.70;;;;;;5112273;28;19911;-76
2023/08/17 06:12:37;;;;;;;;;;;22.30;71.90;;;;;;5111120;28;19915;-76
2023/08/17 06:15:03;;;;;;;;;;;22.30;71.90;;;;;;5111887;28;20003;-76
2023/08/17 06:17:29;;;;;;;;;;;22.30;71.80;;;;;;5112284;28;19919;-76
2023/08/17 06:19:54;;;;;;;;;;;22.30;71.70;;;;;;5111707;28;19914;-74
2023/08/17 06:22:20;;;;;;;;;;;22.40;71.80;;;;;;5112085;28;19916;-74
2023/08/17 06:24:45;;;;;;;;;;;22.40;71.80;;;;;;5111644;28;19908;-74
2023/08/17 06:27:13;;;;;;;;;;;22.40;71.90;;;;;;5110678;28;19945;-74
2023/08/17 06:29:39;;;;;;;;;;;22.50;71.80;;;;;;5111633;28;19915;-75
2023/08/17 06:32:04;;;;;;;;;;;22.50;71.80;;;;;;5111773;28;19965;-75
2023/08/17 06:34:30;;;;;;;;;;;22.60;71.80;;;;;;5111542;28;19912;-75
2023/08/17 06:36:59;;;;;;;;;;;22.60;71.90;;;;;;5111758;28;19919;-75
2023/08/17 06:39:25;;;;;;;;;;;22.70;72.10;;;;;;5111637;28;19908;-75
2023/08/17 06:41:50;;;;;;;;;;;22.70;72.10;;;;;;5110427;28;20363;-75
2023/08/17 06:44:16;;;;;;;;;;;22.80;72.10;;;;;;5108791;28;20349;-75
2023/08/17 06:46:41;;;;;;;;;;;22.80;72.10;;;;;;5091238;28;20287;-75
2023/08/17 06:49:08;;;;;;;;;;;22.90;72.30;;;;;;5095373;28;19914;-75
2023/08/17 06:51:33;;;;;;;;;;;22.90;71.90;;;;;;5111895;28;19923;-76
2023/08/17 06:53:59;;;;;;;;;;;22.90;72.00;;;;;;5111416;28;20408;-76
2023/08/17 06:56:25;;;;;;;;;;;22.90;72.00;;;;;;5109978;28;20374;-76
2023/08/17 06:58:51;;;;;;;;;;;22.90;72.10;;;;;;5111853;28;19919;-75
2023/08/17 07:01:16;;;;;;;;;;;22.90;72.00;;;;;;5115328;28;19916;-76
2023/08/17 07:03:42;;;;;;;;;;;22.90;72.00;;;;;;5115282;28;19960;-76
2023/08/17 07:06:08;;;;;;;;;;;22.90;72.20;;;;;;5114932;28;20008;-76
2023/08/17 07:08:33;;;;;;;;;;;22.90;72.10;;;;;;5114176;28;19965;-76
2023/08/17 07:10:59;;;;;;;;;;;23.00;72.20;;;;;;5098552;28;20397;-76
2023/08/17 07:13:24;;;;;;;;;;;23.10;72.20;;;;;;5094563;28;19913;-76
2023/08/17 07:15:49;;;;;;;;;;;23.10;72.10;;;;;;5094809;28;19916;-76
2023/08/17 07:18:15;;;;;;;;;;;23.00;72.00;;;;;;5093316;28;19908;-76
2023/08/17 07:20:40;;;;;;;;;;;23.10;72.00;;;;;;5094205;28;20012;-76
2023/08/17 07:23:06;;;;;;;;;;;23.10;71.80;;;;;;5096121;28;19924;-76
2023/08/17 07:25:32;;;;;;;;;;;23.00;71.60;;;;;;5096642;28;19908;-76
2023/08/17 07:27:58;;;;;;;;;;;23.00;71.70;;;;;;5094300;28;20390;-77
2023/08/17 07:30:23;;;;;;;;;;;23.00;71.80;;;;;;5093244;28;19916;-76
2023/08/17 07:32:49;;;;;;;;;;;23.00;71.90;;;;;;5098613;28;19917;-76
2023/08/17 07:35:14;;;;;;;;;;;23.00;72.00;;;;;;5095170;27;20318;-76
2023/08/17 07:37:40;;;;;;;;;;;23.10;72.00;;;;;;5093863;28;19961;-76
2023/08/17 07:40:06;;;;;;;;;;;23.10;71.80;;;;;;5099063;28;19916;-76
2023/08/17 07:42:32;;;;;;;;;;;23.10;71.80;;;;;;5104715;28;19929;-79
2023/08/17 07:44:57;;;;;;;;;;;23.10;71.70;;;;;;5103524;28;19962;-79
2023/08/17 07:47:23;;;;;;;;;;;23.10;72.00;;;;;;5114414;28;20268;-78
2023/08/17 07:49:48;;;;;;;;;;;23.10;72.20;;;;;;5113183;28;19953;-79
2023/08/17 07:52:14;;;;;;;;;;;23.20;72.20;;;;;;5096284;28;19916;-80
2023/08/17 07:54:39;;;;;;;;;;;23.20;71.80;;;;;;5092071;28;20355;-79
2023/08/17 07:57:05;;;;;;;;;;;23.20;72.00;;;;;;5114341;28;19920;-81
2023/08/17 07:59:30;;;;;;;;;;;23.20;71.70;;;;;;5110771;28;20295;-80
2023/08/17 08:01:56;;;;;;;;;;;23.20;72.20;;;;;;5098787;28;19916;-80
2023/08/17 08:04:21;;;;;;;;;;;23.20;72.10;;;;;;5092860;27;20001;-80
2023/08/17 08:06:47;;;;;;;;;;;23.20;72.00;;;;;;5094114;28;19920;-81
2023/08/17 08:09:12;;;;;;;;;;;23.30;72.30;;;;;;5096504;28;20443;-80
2023/08/17 08:11:38;;;;;;;;;;;23.40;72.10;;;;;;5096388;28;20314;-80
2023/08/17 08:14:04;;;;;;;;;;;23.60;72.20;;;;;;5094080;28;20006;-80
2023/08/17 08:16:32;;;;;;;;;;;23.70;72.10;;;;;;5092407;28;19924;-81
2023/08/17 08:18:58;;;;;;;;;;;23.80;72.10;;;;;;5094920;28;19951;-81
2023/08/17 08:21:23;;;;;;;;;;;24.00;72.00;;;;;;5095169;28;20263;-80
2023/08/17 08:23:49;;;;;;;;;;;24.10;71.60;;;;;;5093534;28;19922;-81
2023/08/17 08:26:14;;;;;;;;;;;24.10;71.40;;;;;;5095286;28;20003;-80
2023/08/17 08:28:40;;;;;;;;;;;24.10;71.40;;;;;;5110512;28;19916;-80
2023/08/17 08:31:05;;;;;;;;;;;24.10;71.10;;;;;;5096933;28;19912;-80
2023/08/17 08:33:31;;;;;;;;;;;24.20;71.20;;;;;;5098191;28;19920;-79
2023/08/17 08:35:57;;;;;;;;;;;24.20;71.20;;;;;;5100962;28;19927;-79
2023/08/17 08:38:24;;;;;;;;;;;24.20;71.20;;;;;;5103332;28;19934;-79
2023/08/17 08:40:50;;;;;;;;;;;24.30;71.00;;;;;;5099286;28;20352;-79
2023/08/17 08:43:16;;;;;;;;;;;24.30;71.20;;;;;;5097350;27;20390;-79
2023/08/17 08:45:42;;;;;;;;;;;24.40;71.20;;;;;;5094510;28;19916;-79
2023/08/17 08:48:08;;;;;;;;;;;24.50;71.30;;;;;;5103202;28;19912;-79
2023/08/17 08:50:35;;;;;;;;;;;24.60;71.10;;;;;;5119977;28;20018;-78
2023/08/17 08:53:04;;;;;;;;;;;24.60;70.50;;;;;;5123507;28;19962;-78
2023/08/17 08:55:33;;;;;;;;;;;24.60;71.00;;;;;;5110400;28;19904;-78
2023/08/17 08:57:59;;;;;;;;;;;24.70;70.80;;;;;;5113053;28;19942;-78
2023/08/17 09:00:26;;;;;;;;;;;24.70;70.40;;;;;;5121332;28;19908;-77
2023/08/17 09:02:51;;;;;;;;;;;24.60;70.00;;;;;;5115922;28;19920;-77
2023/08/17 09:05:18;;;;;;;;;;;24.60;70.50;;;;;;5115670;28;19904;-77
2023/08/17 09:07:44;;;;;;;;;;;24.60;70.20;;;;;;5116633;28;19923;-77
2023/08/17 09:10:10;;;;;;;;;;;24.50;70.00;;;;;;5114493;28;19916;-77
2023/08/17 09:12:35;;;;;;;;;;;24.60;70.60;;;;;;5094746;28;20391;-77
2023/08/17 09:15:01;;;;;;;;;;;24.60;70.10;;;;;;5095783;28;19950;-77
2023/08/17 09:17:27;;;;;;;;;;;24.70;70.00;;;;;;5096957;28;19912;-77
2023/08/17 09:19:52;;;;;;;;;;;24.80;70.20;;;;;;5096820;28;19908;-77
2023/08/17 09:22:24;;;;;;;;;;;24.90;69.70;;;;;;5098949;28;19931;-77
2023/08/17 09:24:51;;;;;;;;;;;25.00;70.00;;;;;;5099682;28;19926;-76
2023/08/17 09:27:17;;;;;;;;;;;25.00;69.80;;;;;;5100486;28;19912;-76
2023/08/17 09:29:45;;;;;;;;;;;25.10;70.10;;;;;;5105742;28;20003;-76
2023/08/17 09:32:11;;;;;;;;;;;25.20;70.00;;;;;;5101784;28;19930;-76
2023/08/17 09:34:36;;;;;;;;;;;25.30;70.00;;;;;;5097578;28;19896;-76
2023/08/17 09:37:02;;;;;;;;;;;25.30;69.60;;;;;;5097999;28;19983;-76
2023/08/17 09:39:28;;;;;;;;;;;25.30;68.90;;;;;;5098525;28;19908;-76
2023/08/17 09:41:54;;;;;;;;;;;25.30;68.80;;;;;;5097224;28;19927;-76
2023/08/17 09:44:20;;;;;;;;;;;25.30;68.30;;;;;;5096812;28;20279;-76
2023/08/17 09:46:46;;;;;;;;;;;25.30;68.50;;;;;;5117951;28;19951;-76
2023/08/17 09:49:11;;;;;;;;;;;25.30;67.90;;;;;;5107594;28;20002;-75
2023/08/17 09:51:37;;;;;;;;;;;25.30;68.40;;;;;;5107612;28;19961;-75
2023/08/17 09:54:02;;;;;;;;;;;25.40;68.50;;;;;;5107246;28;19919;-75
2023/08/17 09:56:28;;;;;;;;;;;25.50;68.30;;;;;;5104888;28;19927;-75
2023/08/17 09:58:54;;;;;;;;;;;25.50;68.80;;;;;;5105336;28;19912;-75
2023/08/17 10:01:21;;;;;;;;;;;25.60;68.20;;;;;;5114529;28;19916;-75
2023/08/17 10:03:49;;;;;;;;;;;25.50;67.30;;;;;;5099708;28;19916;-75
2023/08/17 10:06:17;;;;;;;;;;;25.50;66.70;;;;;;5094826;28;19922;-76
2023/08/17 10:08:43;;;;;;;;;;;25.40;67.40;;;;;;5093956;28;19923;-76
2023/08/17 10:11:09;;;;;;;;;;;25.40;66.40;;;;;;5094656;28;19916;-76
2023/08/17 10:13:37;;;;;;;;;;;25.30;66.50;;;;;;5095259;28;19912;-77
2023/08/17 10:16:10;;;;;;;;;;;25.30;66.80;;;;;;5097493;28;20294;-76
2023/08/17 10:18:41;;;;;;;;;;;25.30;67.10;;;;;;5095188;28;19920;-76
2023/08/17 10:21:10;;;;;;;;;;;25.30;68.00;;;;;;5105900;28;19920;-76
2023/08/17 10:23:35;;;;;;;;;;;25.30;66.80;;;;;;5115325;28;19912;-76
2023/08/17 10:26:04;;;;;;;;;;;25.20;66.30;;;;;;5115867;28;19955;-76
2023/08/17 10:28:31;;;;;;;;;;;25.20;66.80;;;;;;5115709;28;19947;-76
2023/08/17 10:30:57;;;;;;;;;;;25.20;66.90;;;;;;5116726;28;19901;-76
2023/08/17 10:33:24;;;;;;;;;;;25.20;67.50;;;;;;5118951;28;19916;-76
2023/08/17 10:35:50;;;;;;;;;;;25.20;67.40;;;;;;5135806;28;19923;-77
2023/08/17 10:38:16;;;;;;;;;;;25.20;67.10;;;;;;5689182;22;20339;-77
2023/08/17 10:40:42;;;;;;;;;;;25.30;66.80;;;;;;5078217;28;20764;-76
2023/08/17 10:43:07;;;;;;;;;;;25.30;66.80;;;;;;5079383;28;19916;-76
2023/08/17 10:45:38;;;;;;;;;;;25.20;65.80;;;;;;5079850;28;19897;-76
2023/08/17 10:48:07;;;;;;;;;;;25.20;66.10;;;;;;5081632;28;19951;-76
2023/08/17 10:50:32;;;;;;;;;;;25.20;66.10;;;;;;5098556;28;19967;-77
2023/08/17 10:53:03;;;;;;;;;;;25.20;66.30;;;;;;5096634;28;19908;-77
2023/08/17 10:55:36;;;;;;;;;;;25.20;66.30;;;;;;5098016;28;19921;-77
2023/08/17 10:58:02;;;;;;;;;;;25.10;66.80;;;;;;5094448;28;19968;-77
2023/08/17 11:00:34;;;;;;;;;;;25.10;66.70;;;;;;5080356;28;19920;-77
2023/08/17 11:03:01;;;;;;;;;;;25.10;66.00;;;;;;5083271;28;19908;-77
2023/08/17 11:05:38;;;;;;;;;;;25.10;66.10;;;;;;5094927;28;19912;-79
2023/08/17 11:08:09;;;;;;;;;;;25.10;66.20;;;;;;5091294;28;19931;-77
2023/08/17 11:10:35;;;;;;;;;;;25.00;66.10;;;;;;5087709;28;19959;-77
2023/08/17 11:13:01;;;;;;;;;;;25.00;65.70;;;;;;5079120;28;19919;-77
2023/08/17 11:15:42;;;;;;;;;;;24.80;65.30;;;;;;5085557;28;19932;-77
2023/08/17 11:18:08;;;;;;;;;;;24.80;65.50;;;;;;5082267;28;20356;-78
2023/08/17 11:20:34;;;;;;;;;;;24.60;66.40;;;;;;5079233;28;20075;-78
2023/08/17 11:23:00;;;;;;;;;;;24.60;65.90;;;;;;5079379;28;19909;-78
2023/08/17 11:25:26;;;;;;;;;;;24.50;65.80;;;;;;5062130;28;19927;-78
2023/08/17 11:27:52;;;;;;;;;;;24.40;66.70;;;;;;5077347;28;20003;-78
2023/08/17 11:30:18;;;;;;;;;;;24.40;67.00;;;;;;5077133;28;19964;-78
2023/08/17 11:32:43;;;;;;;;;;;24.30;66.90;;;;;;5072144;28;19916;-77
2023/08/17 11:35:08;;;;;;;;;;;24.30;66.30;;;;;;5062528;28;19917;-77
2023/08/17 11:37:34;;;;;;;;;;;24.20;66.40;;;;;;5070292;28;19912;-77
2023/08/17 11:39:59;;;;;;;;;;;24.00;66.60;;;;;;5081236;28;19921;-78
2023/08/17 11:42:25;;;;;;;;;;;24.00;67.30;;;;;;5078317;28;20265;-78
2023/08/17 11:44:50;;;;;;;;;;;24.00;67.80;;;;;;5080036;28;19942;-78
2023/08/17 11:47:16;;;;;;;;;;;24.00;67.80;;;;;;5083632;28;19935;-78
2023/08/17 11:49:42;;;;;;;;;;;24.00;67.40;;;;;;5083181;28;20019;-78
2023/08/17 11:52:10;;;;;;;;;;;24.10;67.40;;;;;;5079914;28;19986;-78
2023/08/17 11:54:39;;;;;;;;;;;24.10;67.50;;;;;;5085623;28;19917;-78
2023/08/17 11:57:05;;;;;;;;;;;24.20;68.00;;;;;;5088019;28;19943;-76
2023/08/17 11:59:32;;;;;;;;;;;24.20;67.60;;;;;;5081302;28;19995;-77
2023/08/17 12:02:00;;;;;;;;;;;24.40;68.10;;;;;;5081677;28;19998;-78
2023/08/17 12:17:22;;;;;;;;;;;25.00;66.60;;;;;;5202778;23;19913;-77
2023/08/17 12:19:48;;;;;;;;;;;25.10;65.40;;;;;;5039071;28;19957;-77
2023/08/17 12:22:14;;;;;;;;;;;25.10;64.70;;;;;;5049993;23;19943;-77
2023/08/17 12:24:40;;;;;;;;;;;25.10;64.30;;;;;;5038363;28;19898;-77
2023/08/17 12:27:06;;;;;;;;;;;25.10;64.10;;;;;;5037949;28;19908;-77
2023/08/17 12:29:31;;;;;;;;;;;25.10;63.90;;;;;;5039241;28;19913;-77
2023/08/17 12:31:57;;;;;;;;;;;25.10;64.00;;;;;;5038630;28;19918;-77
2023/08/17 12:34:23;;;;;;;;;;;25.10;63.70;;;;;;5037408;28;20155;-77
2023/08/17 12:36:48;;;;;;;;;;;25.10;63.90;;;;;;5038568;28;19913;-77
2023/08/17 12:39:15;;;;;;;;;;;25.10;63.60;;;;;;5836799;23;19930;-76
2023/08/17 12:41:40;;;;;;;;;;;25.10;63.20;;;;;;5035609;28;19921;-81
2023/08/17 12:44:06;;;;;;;;;;;25.10;63.50;;;;;;5032013;28;19926;-79
2023/08/17 12:46:32;;;;;;;;;;;25.10;63.10;;;;;;5035304;28;19932;-81
2023/08/17 12:48:58;;;;;;;;;;;25.10;63.60;;;;;;5035336;28;19905;-78
2023/08/17 12:51:24;;;;;;;;;;;25.20;63.50;;;;;;5257439;23;19913;-80
2023/08/17 12:53:50;;;;;;;;;;;25.20;63.60;;;;;;5057484;28;19981;-80
2023/08/17 12:56:16;;;;;;;;;;;25.20;63.10;;;;;;5055127;28;19925;-83
2023/08/17 12:58:41;;;;;;;;;;;25.30;63.20;;;;;;5056903;28;19917;-82
2023/08/17 13:01:07;;;;;;;;;;;25.30;63.00;;;;;;5056305;28;19901;-79
2023/08/17 13:03:32;;;;;;;;;;;25.30;62.70;;;;;;5053637;28;19969;-82
2023/08/17 13:05:58;;;;;;;;;;;25.30;63.30;;;;;;5054425;28;19917;-81
2023/08/17 13:08:23;;;;;;;;;;;25.30;62.40;;;;;;5053790;28;19916;-80
2023/08/17 13:10:49;;;;;;;;;;;25.20;62.40;;;;;;5053757;28;19909;-81
2023/08/17 13:13:14;;;;;;;;;;;25.20;62.40;;;;;;5055930;28;19948;-80
2023/08/17 13:15:41;;;;;;;;;;;25.30;62.60;;;;;;5054716;28;19909;-82
2023/08/17 13:18:06;;;;;;;;;;;25.30;62.20;;;;;;5055628;28;19917;-78
2023/08/17 13:20:32;;;;;;;;;;;25.30;62.40;;;;;;5055165;28;19917;-79
2023/08/17 13:22:57;;;;;;;;;;;25.30;62.20;;;;;;5053687;28;19932;-81
2023/08/17 13:25:22;;;;;;;;;;;25.30;62.20;;;;;;5054468;28;19949;-80
2023/08/17 13:27:48;;;;;;;;;;;25.30;62.00;;;;;;5045184;28;19918;-82
2023/08/17 13:30:13;;;;;;;;;;;25.20;61.70;;;;;;5032626;28;19913;-83
2023/08/17 13:32:39;;;;;;;;;;;25.10;61.60;;;;;;5031125;28;19917;-82
2023/08/17 13:35:05;;;;;;;;;;;25.00;61.40;;;;;;5049706;28;20405;-79
2023/08/17 13:37:31;;;;;;;;;;;25.00;61.10;;;;;;5053738;28;19917;-79
2023/08/17 13:39:56;;;;;;;;;;;24.90;61.00;;;;;;5050674;28;19924;-82
2023/08/17 13:42:22;;;;;;;;;;;24.90;61.00;;;;;;5052818;28;19984;-82
2023/08/17 13:44:47;;;;;;;;;;;25.00;61.40;;;;;;5050383;28;19924;-82
2023/08/17 13:47:13;;;;;;;;;;;25.10;61.30;;;;;;5050379;28;19929;-83
2023/08/17 13:49:38;;;;;;;;;;;25.10;61.10;;;;;;5033370;28;19980;-80
2023/08/17 13:52:04;;;;;;;;;;;25.10;61.50;;;;;;5030744;28;19929;-79
2023/08/17 13:54:29;;;;;;;;;;;25.20;61.20;;;;;;5029959;28;19918;-79
2023/08/17 13:56:55;;;;;;;;;;;25.30;61.10;;;;;;5024919;28;20310;-80
2023/08/17 13:59:20;;;;;;;;;;;25.30;60.10;;;;;;5026646;28;19905;-81
2023/08/17 14:01:46;;;;;;;;;;;25.20;60.40;;;;;;5029053;28;19953;-80
2023/08/17 14:04:12;;;;;;;;;;;25.20;60.20;;;;;;5025766;28;19917;-80
2023/08/17 14:06:38;;;;;;;;;;;25.20;60.70;;;;;;5025275;28;20281;-80
2023/08/17 14:09:04;;;;;;;;;;;25.30;60.20;;;;;;5021768;28;19941;-78
2023/08/17 14:11:29;;;;;;;;;;;25.30;59.70;;;;;;5032343;28;19929;-80
2023/08/17 14:13:55;;;;;;;;;;;25.30;60.30;;;;;;5028347;28;19940;-78
2023/08/17 14:16:20;;;;;;;;;;;25.30;60.80;;;;;;5032805;28;20361;-81
2023/08/17 14:18:46;;;;;;;;;;;25.30;60.60;;;;;;5030699;28;19959;-80
2023/08/17 14:21:11;;;;;;;;;;;25.30;59.80;;;;;;5024469;28;19917;-80